Raiatea — V7VA3 — position and weather

sailwx.info

Track history (hours):
 
Tides and Currents Weather Stations Pressure Air Temp Water Temp Dewpoint Dewpoint Depression Visibility Wind Speed Wind Dir Waves Ship Positions

Raiatea

Last reported at 2016-Aug-18 12:11 UTC. Time now 2016-Aug-28 02:14 UTC.
Position N 31°16' E 121°45'.
Warning: this ship's position is 9 days out of date.

Length 292 m; draft 8.6 m.

Type: Cargo ship. MMSI: 538004070.

Date/timePositionNaut miles runAvg speedWind from/ knotsBaromVisibWave heightAir tempDewpointWater temp
2016-Aug-18 12:11N 31°16' E 121°45'812.5
2016-Aug-18 11:33N 31°22' E 121°38'1010.0
2016-Aug-18 10:33N 31°27' E 121°28'1110.7
2016-Aug-18 09:33N 31°34' E 121°19'1413.8
2016-Aug-18 08:33N 31°43' E 121°07'1212.2
2016-Aug-18 07:34N 31°49' E 120°55'1411.9
2016-Aug-18 06:24N 32°01' E 120°45'6 7.2
2016-Aug-18 05:31N 31°60' E 120°38'1 0.0
2016-Aug-16 07:32N 31°60' E 120°39'3110.1
2016-Aug-16 04:28N 31°42' E 121°09'1314.0
2016-Aug-16 03:34N 31°34' E 121°19'1212.2
2016-Aug-16 02:33N 31°26' E 121°30'1110.9
2016-Aug-16 01:32N 31°20' E 121°41'1010.1
2016-Aug-16 00:33N 31°16' E 121°52'  
2016-Aug-13 14:20N 31°10' E 122°38'28 3.2
2016-Aug-13 05:33N 30°46' E 122°56'1212.3
2016-Aug-13 04:33N 30°34' E 122°54'1312.5
2016-Aug-13 03:33N 30°22' E 122°51'1313.2
2016-Aug-13 02:32N 30°22' E 122°36'  
Track history (hours):
 
Tides and Currents Weather Stations Pressure Air Temp Water Temp Dewpoint Dewpoint Depression Visibility Wind Speed Wind Dir Waves Ship Positions

Raiatea

Last reported at 2016-Aug-18 12:11 UTC. Time now 2016-Aug-28 02:14 UTC.
Position N 31°16' E 121°45'.
Warning: this ship's position is 9 days out of date.

Length 292 m; draft 8.6 m.

Type: Cargo ship. MMSI: 538004070.

Date/timePositionNaut miles runAvg speedWind from/ knotsBaromVisibWave heightAir tempDewpointWater temp
2016-Aug-18 12:11N 31°16' E 121°45'812.5
2016-Aug-18 11:33N 31°22' E 121°38'1010.0
2016-Aug-18 10:33N 31°27' E 121°28'1110.7
2016-Aug-18 09:33N 31°34' E 121°19'1413.8
2016-Aug-18 08:33N 31°43' E 121°07'1212.2
2016-Aug-18 07:34N 31°49' E 120°55'1411.9
2016-Aug-18 06:24N 32°01' E 120°45'6 7.2
2016-Aug-18 05:31N 31°60' E 120°38'1 0.0
2016-Aug-16 07:32N 31°60' E 120°39'3110.1
2016-Aug-16 04:28N 31°42' E 121°09'1314.0
2016-Aug-16 03:34N 31°34' E 121°19'1212.2
2016-Aug-16 02:33N 31°26' E 121°30'1110.9
2016-Aug-16 01:32N 31°20' E 121°41'1010.1
2016-Aug-16 00:33N 31°16' E 121°52'  
2016-Aug-13 14:20N 31°10' E 122°38'28 3.2
2016-Aug-13 05:33N 30°46' E 122°56'1212.3
2016-Aug-13 04:33N 30°34' E 122°54'1312.5
2016-Aug-13 03:33N 30°22' E 122°51'1313.2
2016-Aug-13 02:32N 30°22' E 122°36'  

Dump ship's entire track history